sensor_id;sensor_type;location;lat;lon;timestamp;pressure;altitude;pressure_sealevel;temperature;humidity
63819;BME280;49970;54.976;73.248;2023-03-26T00:01:35;99990.44;;;2.54;92.55
63819;BME280;49970;54.976;73.248;2023-03-26T00:04:03;99992.88;;;2.58;92.58
63819;BME280;49970;54.976;73.248;2023-03-26T00:06:32;99992.94;;;2.57;92.41
63819;BME280;49970;54.976;73.248;2023-03-26T00:09:02;99997.38;;;2.55;92.46
63819;BME280;49970;54.976;73.248;2023-03-26T00:11:29;99994.00;;;2.53;92.52
63819;BME280;49970;54.976;73.248;2023-03-26T00:13:56;99998.41;;;2.50;92.62
63819;BME280;49970;54.976;73.248;2023-03-26T00:16:25;99981.38;;;2.42;92.82
63819;BME280;49970;54.976;73.248;2023-03-26T00:18:51;100003.81;;;2.47;92.60
63819;BME280;49970;54.976;73.248;2023-03-26T00:21:20;100006.41;;;2.47;92.34
63819;BME280;49970;54.976;73.248;2023-03-26T00:23:59;100003.06;;;2.44;92.75
63819;BME280;49970;54.976;73.248;2023-03-26T00:26:35;100001.44;;;2.41;92.51
63819;BME280;49970;54.976;73.248;2023-03-26T00:29:10;100006.66;;;2.41;92.43
63819;BME280;49970;54.976;73.248;2023-03-26T00:31:49;100002.34;;;2.40;92.34
63819;BME280;49970;54.976;73.248;2023-03-26T00:34:15;100000.66;;;2.39;92.26
63819;BME280;49970;54.976;73.248;2023-03-26T00:36:43;100004.19;;;2.38;92.41
63819;BME280;49970;54.976;73.248;2023-03-26T00:39:12;100012.03;;;2.38;92.33
63819;BME280;49970;54.976;73.248;2023-03-26T00:41:39;100011.13;;;2.39;92.44
63819;BME280;49970;54.976;73.248;2023-03-26T00:44:12;100005.09;;;2.37;92.07
63819;BME280;49970;54.976;73.248;2023-03-26T00:46:39;100013.84;;;2.36;92.20
63819;BME280;49970;54.976;73.248;2023-03-26T00:49:05;100009.47;;;2.37;92.20
63819;BME280;49970;54.976;73.248;2023-03-26T00:51:35;100004.25;;;2.37;92.24
63819;BME280;49970;54.976;73.248;2023-03-26T00:54:13;100012.16;;;2.35;92.00
63819;BME280;49970;54.976;73.248;2023-03-26T00:56:39;100013.09;;;2.34;92.25
63819;BME280;49970;54.976;73.248;2023-03-26T00:59:05;100014.81;;;2.34;91.79
63819;BME280;49970;54.976;73.248;2023-03-26T01:01:39;100018.34;;;2.33;91.84
63819;BME280;49970;54.976;73.248;2023-03-26T01:04:37;100010.59;;;2.31;91.79
63819;BME280;49970;54.976;73.248;2023-03-26T01:07:09;100007.97;;;2.31;92.20
63819;BME280;49970;54.976;73.248;2023-03-26T01:09:44;100012.34;;;2.31;91.92
63819;BME280;49970;54.976;73.248;2023-03-26T01:12:19;100011.50;;;2.30;91.94
63819;BME280;49970;54.976;73.248;2023-03-26T01:14:46;99997.63;;;2.28;91.96
63819;BME280;49970;54.976;73.248;2023-03-26T01:17:13;99997.63;;;2.28;91.87
63819;BME280;49970;54.976;73.248;2023-03-26T01:22:20;100002.94;;;2.27;91.88
63819;BME280;49970;54.976;73.248;2023-03-26T01:24:47;100002.13;;;2.24;91.90
63819;BME280;49970;54.976;73.248;2023-03-26T01:27:37;100003.91;;;2.24;91.99
63819;BME280;49970;54.976;73.248;2023-03-26T01:35:19;99989.88;;;2.27;92.05
63819;BME280;49970;54.976;73.248;2023-03-26T01:38:12;99995.88;;;2.29;91.90
63819;BME280;49970;54.976;73.248;2023-03-26T01:40:47;99989.81;;;2.28;91.88
63819;BME280;49970;54.976;73.248;2023-03-26T01:43:32;99986.94;;;2.34;92.05
63819;BME280;49970;54.976;73.248;2023-03-26T01:46:05;99983.34;;;2.37;91.96
63819;BME280;49970;54.976;73.248;2023-03-26T01:48:37;99989.28;;;2.40;91.59
63819;BME280;49970;54.976;73.248;2023-03-26T01:51:05;99979.78;;;2.38;91.46
63819;BME280;49970;54.976;73.248;2023-03-26T01:53:34;99990.06;;;2.42;91.86
63819;BME280;49970;54.976;73.248;2023-03-26T01:58:58;99994.31;;;2.45;91.67
63819;BME280;49970;54.976;73.248;2023-03-26T02:07:17;99977.59;;;2.49;91.64
63819;BME280;49970;54.976;73.248;2023-03-26T02:09:52;99988.75;;;2.53;91.33
63819;BME280;49970;54.976;73.248;2023-03-26T02:12:21;99980.91;;;2.53;91.40
63819;BME280;49970;54.976;73.248;2023-03-26T02:14:48;99979.16;;;2.53;91.46
63819;BME280;49970;54.976;73.248;2023-03-26T02:17:14;99980.84;;;2.54;91.30
63819;BME280;49970;54.976;73.248;2023-03-26T02:19:41;99991.25;;;2.56;91.05
63819;BME280;49970;54.976;73.248;2023-03-26T02:22:09;99985.09;;;2.57;91.18
63819;BME280;49970;54.976;73.248;2023-03-26T02:24:48;99976.28;;;2.59;91.20
63819;BME280;49970;54.976;73.248;2023-03-26T02:27:14;99979.59;;;2.63;91.20
63819;BME280;49970;54.976;73.248;2023-03-26T02:29:44;99977.69;;;2.66;90.94
63819;BME280;49970;54.976;73.248;2023-03-26T02:32:13;99973.38;;;2.65;90.78
63819;BME280;49970;54.976;73.248;2023-03-26T02:34:44;99981.88;;;2.70;90.85
63819;BME280;49970;54.976;73.248;2023-03-26T02:37:12;99976.50;;;2.73;90.72
63819;BME280;49970;54.976;73.248;2023-03-26T02:39:41;99968.66;;;2.73;90.67
63819;BME280;49970;54.976;73.248;2023-03-26T02:42:16;99972.94;;;2.76;90.50
63819;BME280;49970;54.976;73.248;2023-03-26T02:44:46;99971.16;;;2.77;90.21
63819;BME280;49970;54.976;73.248;2023-03-26T02:47:19;99977.09;;;2.80;90.53
63819;BME280;49970;54.976;73.248;2023-03-26T02:49:51;99984.78;;;2.83;90.64
63819;BME280;49970;54.976;73.248;2023-03-26T02:52:26;99966.34;;;2.86;90.49
63819;BME280;49970;54.976;73.248;2023-03-26T02:54:55;99973.91;;;2.92;90.33
63819;BME280;49970;54.976;73.248;2023-03-26T02:57:23;99984.75;;;3.04;90.03
63819;BME280;49970;54.976;73.248;2023-03-26T03:00:07;99985.13;;;3.15;90.44
63819;BME280;49970;54.976;73.248;2023-03-26T03:03:00;99988.72;;;3.31;89.96
63819;BME280;49970;54.976;73.248;2023-03-26T03:05:30;99979.47;;;3.43;89.29
63819;BME280;49970;54.976;73.248;2023-03-26T03:08:25;100002.63;;;3.69;88.57
63819;BME280;49970;54.976;73.248;2023-03-26T03:11:17;100002.75;;;3.85;88.19
63819;BME280;49970;54.976;73.248;2023-03-26T03:13:49;100009.84;;;4.00;87.84
63819;BME280;49970;54.976;73.248;2023-03-26T03:16:19;100005.69;;;4.14;87.71
63819;BME280;49970;54.976;73.248;2023-03-26T03:18:51;100009.44;;;4.27;87.46
63819;BME280;49970;54.976;73.248;2023-03-26T03:21:30;100006.03;;;4.42;86.61
63819;BME280;49970;54.976;73.248;2023-03-26T03:23:57;100011.56;;;4.54;86.48
63819;BME280;49970;54.976;73.248;2023-03-26T03:26:25;100011.09;;;4.63;86.26
63819;BME280;49970;54.976;73.248;2023-03-26T03:28:57;100008.00;;;4.72;85.39
63819;BME280;49970;54.976;73.248;2023-03-26T03:31:25;99994.50;;;4.80;85.64
63819;BME280;49970;54.976;73.248;2023-03-26T03:34:04;100007.22;;;4.87;84.50
63819;BME280;49970;54.976;73.248;2023-03-26T03:36:39;100000.72;;;4.94;84.73
63819;BME280;49970;54.976;73.248;2023-03-26T03:39:14;99987.25;;;5.00;84.53
63819;BME280;49970;54.976;73.248;2023-03-26T03:41:51;99994.47;;;5.13;84.61
63819;BME280;49970;54.976;73.248;2023-03-26T03:44:18;99990.59;;;5.20;83.51
63819;BME280;49970;54.976;73.248;2023-03-26T03:46:45;99995.44;;;5.28;83.20
63819;BME280;49970;54.976;73.248;2023-03-26T03:49:14;99998.75;;;5.31;83.65
63819;BME280;49970;54.976;73.248;2023-03-26T03:51:41;100007.97;;;5.38;83.30
63819;BME280;49970;54.976;73.248;2023-03-26T03:54:19;100006.81;;;5.44;83.07
63819;BME280;49970;54.976;73.248;2023-03-26T03:56:49;100008.25;;;5.49;83.51
63819;BME280;49970;54.976;73.248;2023-03-26T03:59:34;100004.34;;;5.57;82.85
63819;BME280;49970;54.976;73.248;2023-03-26T04:02:04;99998.69;;;5.64;82.30
63819;BME280;49970;54.976;73.248;2023-03-26T04:04:37;99999.25;;;5.69;82.42
63819;BME280;49970;54.976;73.248;2023-03-26T04:07:09;100009.53;;;5.74;81.87
63819;BME280;49970;54.976;73.248;2023-03-26T04:10:01;100016.38;;;5.77;82.02
63819;BME280;49970;54.976;73.248;2023-03-26T04:12:44;100021.38;;;5.81;81.93
63819;BME280;49970;54.976;73.248;2023-03-26T04:15:15;100023.81;;;5.84;81.56
63819;BME280;49970;54.976;73.248;2023-03-26T04:17:53;100026.38;;;5.86;81.49
63819;BME280;49970;54.976;73.248;2023-03-26T04:20:20;100027.81;;;5.91;81.38
63819;BME280;49970;54.976;73.248;2023-03-26T04:22:53;100018.84;;;5.95;81.03
63819;BME280;49970;54.976;73.248;2023-03-26T04:25:29;100020.38;;;5.99;80.27
63819;BME280;49970;54.976;73.248;2023-03-26T04:28:07;100009.94;;;5.98;80.43
63819;BME280;49970;54.976;73.248;2023-03-26T04:31:13;100010.97;;;5.95;80.33
63819;BME280;49970;54.976;73.248;2023-03-26T04:33:44;100016.91;;;5.99;80.45
63819;BME280;49970;54.976;73.248;2023-03-26T04:36:17;100018.41;;;6.03;80.03
63819;BME280;49970;54.976;73.248;2023-03-26T04:38:47;100023.41;;;6.08;80.43
63819;BME280;49970;54.976;73.248;2023-03-26T04:41:21;100004.84;;;6.11;79.71
63819;BME280;49970;54.976;73.248;2023-03-26T04:44:13;100008.13;;;6.14;79.55
63819;BME280;49970;54.976;73.248;2023-03-26T04:47:04;100007.28;;;6.14;79.79
63819;BME280;49970;54.976;73.248;2023-03-26T04:49:37;99995.06;;;6.13;79.69
63819;BME280;49970;54.976;73.248;2023-03-26T04:52:03;99997.78;;;6.11;79.53
63819;BME280;49970;54.976;73.248;2023-03-26T04:54:58;99996.75;;;6.14;79.12
63819;BME280;49970;54.976;73.248;2023-03-26T04:57:37;99998.38;;;6.16;79.36
63819;BME280;49970;54.976;73.248;2023-03-26T05:00:18;100005.81;;;6.24;79.36
63819;BME280;49970;54.976;73.248;2023-03-26T05:02:56;100021.22;;;6.30;79.53
63819;BME280;49970;54.976;73.248;2023-03-26T05:05:27;100028.78;;;6.36;79.26
63819;BME280;49970;54.976;73.248;2023-03-26T05:07:56;100015.53;;;6.38;79.53
63819;BME280;49970;54.976;73.248;2023-03-26T05:10:23;100028.25;;;6.45;79.15
63819;BME280;49970;54.976;73.248;2023-03-26T05:13:04;100015.94;;;6.46;79.13
63819;BME280;49970;54.976;73.248;2023-03-26T05:15:34;100022.59;;;6.52;79.03
63819;BME280;49970;54.976;73.248;2023-03-26T05:18:23;100013.41;;;6.59;78.61
63819;BME280;49970;54.976;73.248;2023-03-26T05:20:52;100005.63;;;6.57;78.16
63819;BME280;49970;54.976;73.248;2023-03-26T05:23:21;99997.63;;;6.59;78.25
63819;BME280;49970;54.976;73.248;2023-03-26T05:26:02;100005.34;;;6.62;78.25
63819;BME280;49970;54.976;73.248;2023-03-26T05:28:29;100004.50;;;6.61;78.13
63819;BME280;49970;54.976;73.248;2023-03-26T05:31:05;100005.19;;;6.65;78.46
63819;BME280;49970;54.976;73.248;2023-03-26T05:33:37;100005.91;;;6.67;78.21
63819;BME280;49970;54.976;73.248;2023-03-26T05:36:09;100002.06;;;6.72;78.27
63819;BME280;49970;54.976;73.248;2023-03-26T05:38:41;100001.03;;;6.75;77.84
63819;BME280;49970;54.976;73.248;2023-03-26T05:41:13;100008.09;;;6.74;77.74
63819;BME280;49970;54.976;73.248;2023-03-26T05:43:43;100014.19;;;6.75;77.77
63819;BME280;49970;54.976;73.248;2023-03-26T05:46:30;100007.72;;;6.81;77.92
63819;BME280;49970;54.976;73.248;2023-03-26T05:49:03;100008.31;;;6.86;77.39
63819;BME280;49970;54.976;73.248;2023-03-26T05:51:33;100011.69;;;6.88;77.52
63819;BME280;49970;54.976;73.248;2023-03-26T05:54:25;100006.97;;;6.93;77.55
63819;BME280;49970;54.976;73.248;2023-03-26T05:57:14;100016.47;;;6.95;77.00
63819;BME280;49970;54.976;73.248;2023-03-26T05:59:59;100014.59;;;6.97;77.32
63819;BME280;49970;54.976;73.248;2023-03-26T06:02:43;100015.53;;;6.96;77.24
63819;BME280;49970;54.976;73.248;2023-03-26T06:05:38;100025.22;;;6.96;76.93
63819;BME280;49970;54.976;73.248;2023-03-26T06:08:31;100033.41;;;6.91;77.06
63819;BME280;49970;54.976;73.248;2023-03-26T06:11:00;100016.84;;;6.89;76.68
63819;BME280;49970;54.976;73.248;2023-03-26T06:13:30;100013.47;;;6.87;76.88
63819;BME280;49970;54.976;73.248;2023-03-26T06:15:56;100010.94;;;6.86;76.95
63819;BME280;49970;54.976;73.248;2023-03-26T06:18:35;100000.75;;;6.80;76.47
63819;BME280;49970;54.976;73.248;2023-03-26T06:21:27;99990.06;;;6.83;76.38
63819;BME280;49970;54.976;73.248;2023-03-26T06:23:59;99994.19;;;6.87;76.48
63819;BME280;49970;54.976;73.248;2023-03-26T06:26:44;99993.91;;;6.91;76.45
63819;BME280;49970;54.976;73.248;2023-03-26T06:29:26;99993.13;;;6.89;75.95
63819;BME280;49970;54.976;73.248;2023-03-26T06:32:04;99990.50;;;6.89;76.38
63819;BME280;49970;54.976;73.248;2023-03-26T06:35:03;99988.66;;;6.91;76.13
63819;BME280;49970;54.976;73.248;2023-03-26T06:38:45;99982.59;;;6.89;76.31
63819;BME280;49970;54.976;73.248;2023-03-26T06:41:12;99981.47;;;6.93;76.88
63819;BME280;49970;54.976;73.248;2023-03-26T06:43:56;99984.69;;;6.98;76.46
63819;BME280;49970;54.976;73.248;2023-03-26T06:46:46;99984.50;;;7.02;76.32
63819;BME280;49970;54.976;73.248;2023-03-26T06:49:31;99988.06;;;7.01;76.29
63819;BME280;49970;54.976;73.248;2023-03-26T06:52:16;99992.69;;;6.97;76.37
63819;BME280;49970;54.976;73.248;2023-03-26T06:55:08;99986.75;;;6.93;76.37
63819;BME280;49970;54.976;73.248;2023-03-26T06:58:05;99984.88;;;6.95;76.42
63819;BME280;49970;54.976;73.248;2023-03-26T07:00:53;99989.88;;;7.00;76.57
63819;BME280;49970;54.976;73.248;2023-03-26T07:03:38;99992.31;;;7.03;76.14
63819;BME280;49970;54.976;73.248;2023-03-26T07:06:23;99988.91;;;7.01;76.36
63819;BME280;49970;54.976;73.248;2023-03-26T07:09:13;99988.06;;;7.01;76.27
63819;BME280;49970;54.976;73.248;2023-03-26T07:11:58;99980.28;;;6.99;76.64
63819;BME280;49970;54.976;73.248;2023-03-26T07:14:43;99968.91;;;6.98;76.39
63819;BME280;49970;54.976;73.248;2023-03-26T07:17:21;99970.47;;;7.01;76.49
63819;BME280;49970;54.976;73.248;2023-03-26T07:19:54;99964.47;;;6.99;76.56
63819;BME280;49970;54.976;73.248;2023-03-26T07:22:24;99962.97;;;6.95;76.33
63819;BME280;49970;54.976;73.248;2023-03-26T07:25:06;99963.72;;;6.97;76.78
63819;BME280;49970;54.976;73.248;2023-03-26T07:28:12;99954.78;;;6.99;76.58
63819;BME280;49970;54.976;73.248;2023-03-26T07:31:26;99959.41;;;6.96;76.40
63819;BME280;49970;54.976;73.248;2023-03-26T07:34:43;99955.25;;;6.92;76.27
63819;BME280;49970;54.976;73.248;2023-03-26T07:37:32;99961.75;;;6.86;76.50
63819;BME280;49970;54.976;73.248;2023-03-26T07:40:42;99960.25;;;6.82;76.67
63819;BME280;49970;54.976;73.248;2023-03-26T07:46:31;99954.22;;;6.80;76.21
63819;BME280;49970;54.976;73.248;2023-03-26T07:49:29;99957.69;;;6.81;76.32
63819;BME280;49970;54.976;73.248;2023-03-26T07:52:22;99957.69;;;6.81;76.81
63819;BME280;49970;54.976;73.248;2023-03-26T07:54:58;99955.81;;;6.83;76.88
63819;BME280;49970;54.976;73.248;2023-03-26T08:01:08;99943.50;;;6.83;76.16
63819;BME280;49970;54.976;73.248;2023-03-26T08:07:25;99946.13;;;6.83;76.42
63819;BME280;49970;54.976;73.248;2023-03-26T08:10:29;99941.06;;;6.80;77.05
63819;BME280;49970;54.976;73.248;2023-03-26T08:15:43;99950.91;;;6.77;76.11
63819;BME280;49970;54.976;73.248;2023-03-26T08:18:36;99944.75;;;6.78;76.41
63819;BME280;49970;54.976;73.248;2023-03-26T08:24:00;99943.03;;;6.77;76.05
63819;BME280;49970;54.976;73.248;2023-03-26T08:29:19;99942.56;;;6.70;75.80
63819;BME280;49970;54.976;73.248;2023-03-26T08:31:51;99944.38;;;6.69;75.83
63819;BME280;49970;54.976;73.248;2023-03-26T08:34:19;99945.38;;;6.67;76.04
63819;BME280;49970;54.976;73.248;2023-03-26T08:36:45;99942.75;;;6.67;75.91
63819;BME280;49970;54.976;73.248;2023-03-26T08:39:11;99942.66;;;6.68;75.64
63819;BME280;49970;54.976;73.248;2023-03-26T08:44:25;99944.66;;;6.65;75.97
63819;BME280;49970;54.976;73.248;2023-03-26T08:52:45;99948.19;;;6.64;75.75
63819;BME280;49970;54.976;73.248;2023-03-26T08:55:48;99957.81;;;6.65;75.72
63819;BME280;49970;54.976;73.248;2023-03-26T08:58:29;99948.97;;;6.66;76.18
63819;BME280;49970;54.976;73.248;2023-03-26T09:01:26;99954.03;;;6.69;76.04
63819;BME280;49970;54.976;73.248;2023-03-26T09:12:26;99956.19;;;6.62;75.48
63819;BME280;49970;54.976;73.248;2023-03-26T09:26:23;99945.72;;;6.46;76.00
63819;BME280;49970;54.976;73.248;2023-03-26T09:31:47;99936.72;;;6.36;75.76
63819;BME280;49970;54.976;73.248;2023-03-26T09:37:48;99928.44;;;6.28;76.09
63819;BME280;49970;54.976;73.248;2023-03-26T09:40:19;99936.66;;;6.22;76.53
63819;BME280;49970;54.976;73.248;2023-03-26T09:43:23;99938.16;;;6.12;76.65
63819;BME280;49970;54.976;73.248;2023-03-26T09:52:01;99957.44;;;5.96;76.94
63819;BME280;49970;54.976;73.248;2023-03-26T09:57:27;99955.50;;;6.00;77.66
63819;BME280;49970;54.976;73.248;2023-03-26T10:03:49;99954.38;;;5.88;77.22
63819;BME280;49970;54.976;73.248;2023-03-26T10:06:33;99963.63;;;5.80;77.69
63819;BME280;49970;54.976;73.248;2023-03-26T10:12:14;99955.75;;;5.80;78.13
63819;BME280;49970;54.976;73.248;2023-03-26T10:15:02;99958.31;;;5.81;78.17
63819;BME280;49970;54.976;73.248;2023-03-26T10:34:21;99976.88;;;5.78;78.39
63819;BME280;49970;54.976;73.248;2023-03-26T10:41:10;99981.88;;;5.67;78.39
63819;BME280;49970;54.976;73.248;2023-03-26T10:58:41;99995.84;;;5.67;79.02
63819;BME280;49970;54.976;73.248;2023-03-26T11:12:43;99994.59;;;5.59;78.49
63819;BME280;49970;54.976;73.248;2023-03-26T11:15:20;99991.38;;;5.54;78.65
63819;BME280;49970;54.976;73.248;2023-03-26T11:18:03;100000.53;;;5.46;78.69
63819;BME280;49970;54.976;73.248;2023-03-26T11:20:39;99991.31;;;5.39;79.36
63819;BME280;49970;54.976;73.248;2023-03-26T11:23:32;99996.88;;;5.33;79.13
63819;BME280;49970;54.976;73.248;2023-03-26T11:31:37;99977.22;;;5.24;79.80
63819;BME280;49970;54.976;73.248;2023-03-26T11:34:12;99985.84;;;5.27;79.62
63819;BME280;49970;54.976;73.248;2023-03-26T11:36:48;99980.78;;;5.23;79.92
63819;BME280;49970;54.976;73.248;2023-03-26T11:39:27;99993.22;;;5.20;79.55
63819;BME280;49970;54.976;73.248;2023-03-26T11:42:08;99988.28;;;5.14;80.51
63819;BME280;49970;54.976;73.248;2023-03-26T11:44:59;99993.72;;;5.11;79.78
63819;BME280;49970;54.976;73.248;2023-03-26T11:47:43;99976.44;;;5.07;79.92
63819;BME280;49970;54.976;73.248;2023-03-26T11:50:21;99977.59;;;5.01;80.26
63819;BME280;49970;54.976;73.248;2023-03-26T11:52:50;99983.88;;;4.98;80.86
63819;BME280;49970;54.976;73.248;2023-03-26T11:55:17;99984.81;;;4.97;79.96
63819;BME280;49970;54.976;73.248;2023-03-26T11:57:50;99990.13;;;4.96;80.34
63819;BME280;49970;54.976;73.248;2023-03-26T12:00:20;99998.41;;;4.88;80.57
63819;BME280;49970;54.976;73.248;2023-03-26T12:02:57;99996.16;;;4.81;81.21
63819;BME280;49970;54.976;73.248;2023-03-26T12:05:27;99998.28;;;4.74;81.28
63819;BME280;49970;54.976;73.248;2023-03-26T12:08:00;99992.94;;;4.75;80.45
63819;BME280;49970;54.976;73.248;2023-03-26T12:10:33;99988.72;;;4.73;81.17
63819;BME280;49970;54.976;73.248;2023-03-26T12:13:27;100001.06;;;4.71;80.61
63819;BME280;49970;54.976;73.248;2023-03-26T12:16:09;99988.03;;;4.69;81.51
63819;BME280;49970;54.976;73.248;2023-03-26T12:18:36;99988.78;;;4.71;81.63
63819;BME280;49970;54.976;73.248;2023-03-26T12:21:09;99983.63;;;4.70;80.95
63819;BME280;49970;54.976;73.248;2023-03-26T12:23:43;99982.19;;;4.64;81.12
63819;BME280;49970;54.976;73.248;2023-03-26T12:26:14;99984.13;;;4.61;81.96
63819;BME280;49970;54.976;73.248;2023-03-26T12:28:50;99977.34;;;4.57;81.87
63819;BME280;49970;54.976;73.248;2023-03-26T12:31:17;99980.00;;;4.55;82.43
63819;BME280;49970;54.976;73.248;2023-03-26T12:33:50;99981.97;;;4.52;82.53
63819;BME280;49970;54.976;73.248;2023-03-26T12:36:30;99990.00;;;4.48;81.83
63819;BME280;49970;54.976;73.248;2023-03-26T12:38:58;99984.91;;;4.45;82.69
63819;BME280;49970;54.976;73.248;2023-03-26T12:41:36;99989.53;;;4.40;82.29
63819;BME280;49970;54.976;73.248;2023-03-26T12:44:21;99981.13;;;4.34;82.63
63819;BME280;49970;54.976;73.248;2023-03-26T12:46:51;99994.31;;;4.32;82.86
63819;BME280;49970;54.976;73.248;2023-03-26T12:49:31;99991.59;;;4.34;82.93
63819;BME280;49970;54.976;73.248;2023-03-26T13:06:53;99991.09;;;4.10;83.59
63819;BME280;49970;54.976;73.248;2023-03-26T13:17:47;100011.78;;;3.97;84.15
63819;BME280;49970;54.976;73.248;2023-03-26T13:26:36;100015.50;;;3.74;83.95
63819;BME280;49970;54.976;73.248;2023-03-26T13:29:19;100017.56;;;3.67;84.41
63819;BME280;49970;54.976;73.248;2023-03-26T13:33:00;100014.41;;;3.61;84.62
63819;BME280;49970;54.976;73.248;2023-03-26T13:35:22;100021.69;;;3.54;84.80
63819;BME280;49970;54.976;73.248;2023-03-26T13:38:12;100022.69;;;3.52;84.30
63819;BME280;49970;54.976;73.248;2023-03-26T13:43:43;100031.75;;;3.44;85.02
63819;BME280;49970;54.976;73.248;2023-03-26T13:46:34;100049.28;;;3.42;85.08
63819;BME280;49970;54.976;73.248;2023-03-26T13:49:07;100039.00;;;3.38;85.35
63819;BME280;49970;54.976;73.248;2023-03-26T13:51:42;100046.09;;;3.36;85.46
63819;BME280;49970;54.976;73.248;2023-03-26T13:56:51;100031.88;;;3.22;85.89
63819;BME280;49970;54.976;73.248;2023-03-26T13:59:25;100031.88;;;3.22;86.18
63819;BME280;49970;54.976;73.248;2023-03-26T14:02:00;100039.94;;;3.18;86.25
63819;BME280;49970;54.976;73.248;2023-03-26T14:04:39;100034.25;;;3.08;86.46
63819;BME280;49970;54.976;73.248;2023-03-26T14:09:54;100035.31;;;3.04;86.99
63819;BME280;49970;54.976;73.248;2023-03-26T14:22:40;100049.78;;;2.92;87.01
63819;BME280;49970;54.976;73.248;2023-03-26T14:24:56;100049.94;;;2.89;87.12
63819;BME280;49970;54.976;73.248;2023-03-26T14:36:26;100062.41;;;2.83;87.38
63819;BME280;49970;54.976;73.248;2023-03-26T14:42:13;100072.03;;;2.82;87.34
63819;BME280;49970;54.976;73.248;2023-03-26T14:48:08;100062.63;;;2.78;87.40
63819;BME280;49970;54.976;73.248;2023-03-26T14:53:48;100054.31;;;2.68;87.55
63819;BME280;49970;54.976;73.248;2023-03-26T14:57:02;100056.09;;;2.68;88.00
63819;BME280;49970;54.976;73.248;2023-03-26T15:02:29;100049.34;;;2.62;87.86
63819;BME280;49970;54.976;73.248;2023-03-26T15:08:42;100045.31;;;2.55;88.02
63819;BME280;49970;54.976;73.248;2023-03-26T15:12:08;100047.19;;;2.52;88.27
63819;BME280;49970;54.976;73.248;2023-03-26T15:26:30;100043.97;;;2.45;88.26
63819;BME280;49970;54.976;73.248;2023-03-26T15:31:58;100047.63;;;2.41;88.39
63819;BME280;49970;54.976;73.248;2023-03-26T15:40:39;100050.53;;;2.35;88.35
63819;BME280;49970;54.976;73.248;2023-03-26T15:43:12;100046.19;;;2.34;88.32
63819;BME280;49970;54.976;73.248;2023-03-26T15:45:42;100044.38;;;2.36;88.38
63819;BME280;49970;54.976;73.248;2023-03-26T15:50:50;100034.88;;;2.33;88.34
63819;BME280;49970;54.976;73.248;2023-03-26T15:54:20;100042.47;;;2.39;88.32
63819;BME280;49970;54.976;73.248;2023-03-26T15:57:06;100040.84;;;2.37;88.36
63819;BME280;49970;54.976;73.248;2023-03-26T16:08:32;100037.22;;;2.19;88.46
63819;BME280;49970;54.976;73.248;2023-03-26T16:11:03;100032.91;;;2.18;88.50
63819;BME280;49970;54.976;73.248;2023-03-26T16:13:36;100033.88;;;2.15;88.50
63819;BME280;49970;54.976;73.248;2023-03-26T16:28:34;100008.78;;;2.11;88.88
63819;BME280;49970;54.976;73.248;2023-03-26T16:36:41;100029.38;;;2.19;88.86
63819;BME280;49970;54.976;73.248;2023-03-26T16:47:28;100026.06;;;2.36;88.46
63819;BME280;49970;54.976;73.248;2023-03-26T16:53:19;100021.91;;;2.52;88.39
63819;BME280;49970;54.976;73.248;2023-03-26T16:56:01;100023.38;;;2.58;88.67
63819;BME280;49970;54.976;73.248;2023-03-26T17:04:14;100032.34;;;2.72;88.38
63819;BME280;49970;54.976;73.248;2023-03-26T17:07:22;100032.91;;;2.79;88.16
63819;BME280;49970;54.976;73.248;2023-03-26T17:10:21;100033.56;;;2.84;87.94
63819;BME280;49970;54.976;73.248;2023-03-26T17:13:39;100038.47;;;2.92;87.98
63819;BME280;49970;54.976;73.248;2023-03-26T17:16:22;100040.75;;;2.99;88.09
63819;BME280;49970;54.976;73.248;2023-03-26T17:21:40;100035.06;;;3.10;87.39
63819;BME280;49970;54.976;73.248;2023-03-26T17:27:45;100034.88;;;3.13;87.66
63819;BME280;49970;54.976;73.248;2023-03-26T17:30:59;100034.84;;;3.15;87.54
63819;BME280;49970;54.976;73.248;2023-03-26T17:33:34;100030.38;;;3.17;87.52
63819;BME280;49970;54.976;73.248;2023-03-26T17:41:08;100025.34;;;3.12;87.41
63819;BME280;49970;54.976;73.248;2023-03-26T17:43:46;100030.59;;;3.12;87.28
63819;BME280;49970;54.976;73.248;2023-03-26T17:46:38;100029.75;;;3.12;87.48
63819;BME280;49970;54.976;73.248;2023-03-26T17:51:47;100029.75;;;3.12;87.56
63819;BME280;49970;54.976;73.248;2023-03-26T17:54:23;100026.19;;;3.13;87.86
63819;BME280;49970;54.976;73.248;2023-03-26T17:56:54;100028.81;;;3.13;87.45
63819;BME280;49970;54.976;73.248;2023-03-26T17:59:24;100021.25;;;3.07;87.60
63819;BME280;49970;54.976;73.248;2023-03-26T18:02:03;100031.63;;;3.08;87.66
63819;BME280;49970;54.976;73.248;2023-03-26T18:04:35;100034.13;;;3.11;87.76
63819;BME280;49970;54.976;73.248;2023-03-26T18:07:27;100027.25;;;3.09;87.78
63819;BME280;49970;54.976;73.248;2023-03-26T18:19:24;100052.94;;;3.19;87.90
63819;BME280;49970;54.976;73.248;2023-03-26T18:21:56;100051.91;;;3.23;87.16
63819;BME280;49970;54.976;73.248;2023-03-26T18:24:31;100043.19;;;3.23;87.00
63819;BME280;49970;54.976;73.248;2023-03-26T18:27:02;100052.63;;;3.27;87.46
63819;BME280;49970;54.976;73.248;2023-03-26T18:29:32;100052.53;;;3.29;87.33
63819;BME280;49970;54.976;73.248;2023-03-26T18:32:18;100056.06;;;3.28;87.56
63819;BME280;49970;54.976;73.248;2023-03-26T18:34:49;100060.47;;;3.27;87.30
63819;BME280;49970;54.976;73.248;2023-03-26T18:37:22;100064.66;;;3.31;87.69
63819;BME280;49970;54.976;73.248;2023-03-26T18:40:10;100067.97;;;3.35;87.02
63819;BME280;49970;54.976;73.248;2023-03-26T18:42:43;100071.38;;;3.37;87.23
63819;BME280;49970;54.976;73.248;2023-03-26T18:47:40;100072.19;;;3.37;86.89
63819;BME280;49970;54.976;73.248;2023-03-26T18:50:15;100076.50;;;3.38;87.67
63819;BME280;49970;54.976;73.248;2023-03-26T18:52:44;100075.63;;;3.39;87.66
63819;BME280;49970;54.976;73.248;2023-03-26T18:55:12;100073.91;;;3.38;87.56